• Join FlightAware (Why Join?)
  • Login
  • US Flag 
05:59AM EDT


 

Airport Tracker/Info


-or-


 

Live Flight TrackerFlight Track Log ✈ WJA129 ✈ 16-Apr-2013 ✈ CYQR - CYYC

Flight Track Log - Related Links

Times and Time Zones

All times are in EDT time to prevent confusion due to time zone crossing. See the WJA129 flight status page for this flight to view local times or setup timezone preferences in your user account.

Time Position Orientation Groundspeed Altitude Reporting Facility
EDT Latitude Longitude Course Direction KTS MPH feet Rate Location/Type
09:36PM 50.4000 -104.6667 285° West 70 81 2,500  Level Winnipeg Center
09:37PM 50.3667 -104.6000 128° Southeast 180 207 4,600 2,100 Climbing Winnipeg Center
09:38PM 50.3333 -104.6833 238° Southwest 240 276 6,800 2,520 Climbing Winnipeg Center
09:39PM 50.3667 -104.8000 294° West 290 334 9,700 2,940 Climbing Winnipeg Center
09:40PM 50.3667 -104.9333 270° West 300 345 12,700 3,120 Climbing Winnipeg Center
09:41PM 50.4167 -105.0667 301° West 350 403 16,000 3,000 Climbing Winnipeg Center
09:42PM 50.6363 -105.7253 285° West  Level FlightAware Approximate
09:42PM 50.4333 -105.2333 279° West 360 414 18,700  Level Winnipeg Center
09:43PM 50.4833 -105.3667 301° West 370 426 21,900 3,180 Climbing Winnipeg Center
09:44PM 50.5000 -105.5333 279° West 390 449 25,100 3,000 Climbing Winnipeg Center
09:45PM 50.5333 -105.7000 288° West 390 449 27,900 2,280 Climbing Winnipeg Center
09:46PM 50.5500 -105.8833 278° West 400 460 29,700 1,800 Climbing Winnipeg Center
09:47PM 50.6000 -106.0500 295° West 420 483 31,500 1,860 Climbing Winnipeg Center
09:48PM 50.6333 -106.2500 285° West 430 495 33,500 1,800 Climbing Winnipeg Center
09:49PM 50.6667 -106.4167 288° West 430 495 35,200 1,200 Climbing Winnipeg Center
09:50PM 50.6833 -106.5667 280° West 430 495 36,000 360 Climbing Edmonton Center
09:51PM 50.7167 -106.7500 286° West 430 495 36,000  Level Edmonton Center
09:52PM 50.7500 -106.9667 284° West 430 495 36,000  Level Winnipeg Center
09:53PM 50.7833 -107.1500 286° West 430 495 36,000  Level Winnipeg Center
09:54PM 50.8167 -107.3167 288° West 430 495 36,000  Level Winnipeg Center
09:55PM 50.8500 -107.5167 285° West 430 495 36,000  Level Winnipeg Center
09:56PM 50.8667 -107.6833 279° West 430 495 36,000  Level Winnipeg Center
09:57PM 50.9000 -107.8667 286° West 430 495 36,000  Level Winnipeg Center
09:58PM 50.9333 -108.0667 285° West 440 506 36,000  Level Winnipeg Center
09:59PM 50.9500 -108.2000 281° West 430 495 36,000  Level Edmonton Center
10:00PM 51.0000 -108.4333 289° West 430 495 36,000  Level Winnipeg Center
10:01PM 51.0333 -108.6333 285° West 430 495 36,000  Level Winnipeg Center
10:02PM 51.0667 -108.8333 285° West 440 506 36,000  Level Winnipeg Center
10:03PM 51.0833 -109.0000 279° West 430 495 36,000  Level Winnipeg Center
10:04PM 51.1167 -109.1833 286° West 430 495 36,000  Level Winnipeg Center
10:05PM 51.1500 -109.3667 286° West 440 506 36,000  Level Winnipeg Center
10:06PM 51.1667 -109.5500 278° West 440 506 36,000  Level Winnipeg Center
10:07PM 51.1833 -109.7333 278° West 430 495 36,000  Level Edmonton Center
10:08PM 51.2333 -109.9500 290° West 440 506 36,000  Level Winnipeg Center
10:09PM 51.2333 -110.1500 270° West 430 495 36,000  Level Winnipeg Center
10:10PM 51.2500 -110.3333 278° West 430 495 36,000  Level Winnipeg Center
10:11PM 51.2500 -110.5167 270° West 440 506 36,000  Level Winnipeg Center
10:12PM 51.2500 -110.6833 270° West 430 495 36,000  Level Edmonton Center
10:13PM 51.2500 -110.8667 270° West 430 495 36,000  Level Edmonton Center
10:14PM 51.2500 -111.0667 270° West 430 495 36,000 -900 Level Edmonton Center
10:15PM 51.2667 -111.2500 278° West 430 495 34,200 -1,980 Descending Edmonton Center
10:16PM 51.2667 -111.4500 270° West 420 483 32,100 -2,100 Descending Edmonton Center
10:17PM 51.2667 -111.6333 270° West 410 472 30,000 -2,040 Descending Edmonton Center
10:18PM 51.2833 -111.8000 279° West 390 449 28,100 -1,980 Descending Edmonton Center
10:19PM 51.2667 -111.9833 262° West 380 437 26,100 -1,920 Descending Edmonton Center
10:20PM 51.2833 -112.1500 279° West 370 426 24,300 -1,800 Descending Edmonton Center
10:21PM 51.2833 -112.2833 270° West 360 414 22,500 -1,800 Descending Edmonton Center
10:22PM 51.2833 -112.4500 270° West 350 403 20,700 -1,800 Descending Edmonton Center
10:23PM 51.2833 -112.6167 270° West 330 380 19,000 -1,740 Descending Edmonton Center
10:24PM 51.2833 -112.7500 270° West 320 368 17,300 -1,740 Descending Edmonton Center
10:25PM 51.2667 -112.8833 259° West 320 368 15,600 -1,680 Descending Edmonton Center
10:26PM 51.2500 -113.0167 259° West 320 368 14,000 -1,740 Descending Edmonton Center
10:27PM 51.2167 -113.1667 251° West 310 357 12,200 -1,020 Descending Edmonton Center
10:28PM 51.2000 -113.2667 255° West 290 334 12,000 -360 Descending Edmonton Center
10:29PM 51.1667 -113.4000 248° West 290 334 11,500 -540 Descending Edmonton Center
10:30PM 51.1667 -113.5333 270° West 290 334 11,000 -540 Descending Edmonton Center
10:31PM 51.1333 -113.6667 248° West 280 322 10,500 -540 Descending Edmonton Center
10:32PM 51.1000 -113.7667 242° Southwest 280 322 10,000 -540 Descending Edmonton Center
10:33PM 51.0500 -113.8667 232° Southwest 270 311 9,500 -660 Descending Edmonton Center
10:34PM 50.9833 -113.9000 197° South 250 288 8,700 -1,200 Descending Edmonton Center
10:35PM 50.9167 -113.9500 205° Southwest 240 276 7,100 -1,140 Descending Edmonton Center
10:36PM 50.8667 -113.9833 203° Southwest 200 230 6,500 -480 Descending Edmonton Center
10:37PM 50.9167 -114.0500 320° Northwest 200 230 6,200 -540 Descending Edmonton Center
10:38PM 50.9667 -114.0333 12° North 180 207 5,500 -840 Descending Edmonton Center
10:39PM 51.0167 -114.0500 348° North 160 184 4,600 -900 Descending Edmonton Center
10:40PM 51.0500 -114.0500 360° North 130 150 3,800 -840 Descending Edmonton Center